createdAt,value
2022-11-26T00:01:46.335Z,8.90
2022-11-26T00:04:31.582Z,8.90
2022-11-26T00:07:22.309Z,8.90
2022-11-26T00:10:24.221Z,8.90
2022-11-26T00:13:17.749Z,8.90
2022-11-26T00:16:03.085Z,8.90
2022-11-26T00:18:48.409Z,8.90
2022-11-26T00:21:39.670Z,8.90
2022-11-26T00:24:28.911Z,8.90
2022-11-26T00:27:13.918Z,8.90
2022-11-26T00:29:59.209Z,8.90
2022-11-26T00:32:44.961Z,9.00
2022-11-26T00:35:29.974Z,8.90
2022-11-26T00:38:18.674Z,8.90
2022-11-26T00:41:04.056Z,9.00
2022-11-26T00:43:49.754Z,9.00
2022-11-26T00:46:34.827Z,8.90
2022-11-26T00:49:20.950Z,8.90
2022-11-26T00:52:32.787Z,8.90
2022-11-26T00:55:29.732Z,8.90
2022-11-26T00:58:28.118Z,9.00
2022-11-26T01:01:17.158Z,8.90
2022-11-26T01:04:02.575Z,9.00
2022-11-26T01:06:47.900Z,9.00
2022-11-26T01:09:33.383Z,9.00
2022-11-26T01:12:18.754Z,9.00
2022-11-26T01:15:04.566Z,9.00
2022-11-26T01:17:50.966Z,9.00
2022-11-26T01:20:36.076Z,9.00
2022-11-26T01:23:21.697Z,8.90
2022-11-26T01:26:18.092Z,8.90
2022-11-26T01:29:03.674Z,8.90
2022-11-26T01:31:49.017Z,9.00
2022-11-26T01:34:34.429Z,8.90
2022-11-26T01:37:19.743Z,8.90
2022-11-26T01:40:23.400Z,8.90
2022-11-26T01:43:26.944Z,8.90
2022-11-26T01:46:17.712Z,9.00
2022-11-26T01:49:35.640Z,9.00
2022-11-26T01:52:24.947Z,9.00
2022-11-26T01:55:15.937Z,9.00
2022-11-26T01:58:01.317Z,9.00
2022-11-26T02:00:49.047Z,9.00
2022-11-26T02:03:41.657Z,9.00
2022-11-26T02:06:32.873Z,9.00
2022-11-26T02:09:18.592Z,9.00
2022-11-26T02:12:04.250Z,9.00
2022-11-26T02:14:49.683Z,9.00
2022-11-26T02:17:43.880Z,9.00
2022-11-26T02:21:03.144Z,9.00
2022-11-26T02:24:12.522Z,9.00
2022-11-26T02:27:25.397Z,9.00
2022-11-26T02:30:12.547Z,8.90
2022-11-26T02:33:12.838Z,9.00
2022-11-26T02:36:14.898Z,9.00
2022-11-26T02:39:22.234Z,9.00
2022-11-26T02:42:30.560Z,9.00
2022-11-26T02:45:19.440Z,9.00
2022-11-26T02:48:16.145Z,9.00
2022-11-26T02:51:07.760Z,9.00
2022-11-26T02:53:54.731Z,9.00
2022-11-26T02:56:40.989Z,9.00
2022-11-26T02:59:26.654Z,9.00
2022-11-26T03:02:19.782Z,9.00
2022-11-26T03:05:07.412Z,9.00
2022-11-26T03:07:54.176Z,9.00
2022-11-26T03:10:40.005Z,9.00
2022-11-26T03:13:25.561Z,9.00
2022-11-26T03:16:10.603Z,9.00
2022-11-26T03:18:56.310Z,9.00
2022-11-26T03:21:41.528Z,9.00
2022-11-26T03:24:27.068Z,9.00
2022-11-26T03:27:12.342Z,9.00
2022-11-26T03:29:57.771Z,9.00
2022-11-26T03:32:43.188Z,8.90
2022-11-26T03:35:28.590Z,9.00
2022-11-26T03:38:14.143Z,9.00
2022-11-26T03:41:01.861Z,9.00
2022-11-26T03:43:47.717Z,9.00
2022-11-26T03:46:32.780Z,8.80
2022-11-26T03:49:18.150Z,9.00
2022-11-26T03:52:03.661Z,9.00
2022-11-26T03:54:48.912Z,9.00
2022-11-26T03:57:34.236Z,9.00
2022-11-26T04:00:20.261Z,9.00
2022-11-26T04:03:05.597Z,9.00
2022-11-26T04:05:51.092Z,9.00
2022-11-26T04:08:36.449Z,9.00
2022-11-26T04:11:21.979Z,9.00
2022-11-26T04:14:07.310Z,9.00
2022-11-26T04:16:52.627Z,9.00
2022-11-26T04:19:38.275Z,9.00
2022-11-26T04:22:23.312Z,9.00
2022-11-26T04:25:09.271Z,9.00
2022-11-26T04:27:54.685Z,9.00
2022-11-26T04:30:40.120Z,9.00
2022-11-26T04:33:28.377Z,9.00
2022-11-26T04:36:13.438Z,9.00
2022-11-26T04:38:59.179Z,9.00
2022-11-26T04:41:44.366Z,9.00
2022-11-26T04:44:29.808Z,9.00
2022-11-26T04:47:15.155Z,9.00
2022-11-26T04:50:00.543Z,9.00
2022-11-26T04:52:48.421Z,9.00
2022-11-26T04:55:33.837Z,9.00
2022-11-26T04:58:20.462Z,9.00
2022-11-26T05:01:05.901Z,9.00
2022-11-26T05:03:51.157Z,9.00
2022-11-26T05:06:36.568Z,9.00
2022-11-26T05:09:22.223Z,9.00
2022-11-26T05:12:07.663Z,8.90
2022-11-26T05:14:53.276Z,8.90
2022-11-26T05:17:38.517Z,8.90
2022-11-26T05:20:24.327Z,8.90
2022-11-26T05:23:09.469Z,9.00
2022-11-26T05:25:54.722Z,9.00
2022-11-26T05:28:40.097Z,9.00
2022-11-26T05:31:25.405Z,8.90
2022-11-26T05:34:10.701Z,9.00
2022-11-26T05:36:56.129Z,8.90
2022-11-26T05:39:41.506Z,9.00
2022-11-26T05:42:26.928Z,9.00
2022-11-26T05:45:12.402Z,9.00
2022-11-26T05:47:57.913Z,9.00
2022-11-26T05:50:43.399Z,9.00
2022-11-26T05:53:28.864Z,8.90
2022-11-26T05:56:14.673Z,8.90
2022-11-26T05:58:59.700Z,8.90
2022-11-26T06:01:45.391Z,8.90
2022-11-26T06:04:30.665Z,9.10
2022-11-26T06:07:16.162Z,9.00
2022-11-26T06:10:01.868Z,9.00
2022-11-26T06:12:47.079Z,8.90
2022-11-26T06:15:32.562Z,9.00
2022-11-26T06:18:18.131Z,9.00
2022-11-26T06:21:06.344Z,8.90
2022-11-26T06:23:57.557Z,8.90
2022-11-26T06:26:44.021Z,8.90
2022-11-26T06:29:29.362Z,8.90
2022-11-26T06:32:14.812Z,8.90
2022-11-26T06:35:00.311Z,8.90
2022-11-26T06:37:45.529Z,8.90
2022-11-26T06:40:31.029Z,8.90
2022-11-26T06:43:16.333Z,9.00
2022-11-26T06:46:07.682Z,8.90
2022-11-26T06:48:53.138Z,8.90
2022-11-26T06:51:38.437Z,8.90
2022-11-26T06:54:23.925Z,9.00
2022-11-26T06:57:09.521Z,9.00
2022-11-26T06:59:54.753Z,8.90
2022-11-26T07:02:40.242Z,9.00
2022-11-26T07:05:25.556Z,9.00
2022-11-26T07:08:11.121Z,9.00
2022-11-26T07:10:56.550Z,9.00
2022-11-26T07:13:42.231Z,9.00
2022-11-26T07:16:28.406Z,9.00
2022-11-26T07:19:14.417Z,9.00
2022-11-26T07:21:59.448Z,9.00
2022-11-26T07:24:45.062Z,8.90
2022-11-26T07:27:30.453Z,8.90
2022-11-26T07:30:16.472Z,8.90
2022-11-26T07:33:01.456Z,8.90
2022-11-26T07:35:46.787Z,8.90
2022-11-26T07:38:32.393Z,8.90
2022-11-26T07:41:19.459Z,9.00
2022-11-26T07:44:04.628Z,8.90
2022-11-26T07:46:49.852Z,9.00
2022-11-26T07:49:35.454Z,8.90
2022-11-26T07:52:20.538Z,9.00
2022-11-26T07:55:11.004Z,9.00
2022-11-26T07:57:57.926Z,8.90
2022-11-26T08:00:43.396Z,9.00
2022-11-26T08:03:28.650Z,9.00
2022-11-26T08:06:20.072Z,9.00
2022-11-26T08:09:05.722Z,9.00
2022-11-26T08:11:51.051Z,9.00
2022-11-26T08:14:36.768Z,8.90
2022-11-26T08:17:22.553Z,8.90
2022-11-26T08:20:08.410Z,8.90
2022-11-26T08:22:53.802Z,8.90
2022-11-26T08:25:59.260Z,8.90
2022-11-26T08:28:45.809Z,9.00
2022-11-26T08:31:30.887Z,9.00
2022-11-26T08:34:17.481Z,9.10
2022-11-26T08:37:03.262Z,9.10
2022-11-26T08:39:48.789Z,9.00
2022-11-26T08:42:34.190Z,9.10
2022-11-26T08:45:19.786Z,9.00
2022-11-26T08:48:05.375Z,9.00
2022-11-26T08:50:51.018Z,9.10
2022-11-26T08:53:36.745Z,9.20
2022-11-26T08:56:22.143Z,9.20
2022-11-26T08:59:07.516Z,9.20
2022-11-26T09:01:53.257Z,9.20
2022-11-26T09:04:38.780Z,9.20
2022-11-26T09:07:24.217Z,9.20
2022-11-26T09:10:10.133Z,9.20
2022-11-26T09:12:55.416Z,9.20
2022-11-26T09:15:40.826Z,9.00
2022-11-26T09:18:26.281Z,8.90
2022-11-26T09:21:11.834Z,8.90
2022-11-26T09:23:57.117Z,9.00
2022-11-26T09:26:42.898Z,9.00
2022-11-26T09:29:28.358Z,8.90
2022-11-26T09:32:24.517Z,8.90
2022-11-26T09:35:12.410Z,8.80
2022-11-26T09:37:57.743Z,8.90
2022-11-26T09:40:54.936Z,8.90
2022-11-26T09:44:03.341Z,8.80
2022-11-26T09:47:13.866Z,8.90
2022-11-26T09:50:11.423Z,9.00
2022-11-26T09:53:04.193Z,9.00
2022-11-26T09:55:52.094Z,9.10
2022-11-26T09:58:57.607Z,9.10
2022-11-26T10:01:42.880Z,9.20
2022-11-26T10:04:34.724Z,9.30
2022-11-26T10:07:44.299Z,9.30
2022-11-26T10:11:03.996Z,9.40
2022-11-26T10:14:08.502Z,9.40
2022-11-26T10:17:12.523Z,9.40
2022-11-26T10:20:23.614Z,9.40
2022-11-26T10:23:11.754Z,9.40
2022-11-26T10:26:24.486Z,9.40
2022-11-26T10:29:24.033Z,9.30
2022-11-26T10:32:34.741Z,9.20
2022-11-26T10:35:27.322Z,9.20
2022-11-26T10:38:12.767Z,9.20
2022-11-26T10:40:58.089Z,9.20
2022-11-26T10:43:43.680Z,9.30
2022-11-26T10:46:35.785Z,9.30
2022-11-26T10:49:29.789Z,9.30
2022-11-26T10:52:24.549Z,9.20
2022-11-26T10:55:32.261Z,9.30
2022-11-26T10:58:42.063Z,9.20
2022-11-26T11:01:39.387Z,9.30
2022-11-26T11:04:36.564Z,9.40
2022-11-26T11:07:33.788Z,9.40
2022-11-26T11:10:22.248Z,9.40
2022-11-26T11:13:13.636Z,9.40
2022-11-26T11:16:02.561Z,9.40
2022-11-26T11:18:54.994Z,9.40
2022-11-26T11:21:48.151Z,9.30
2022-11-26T11:24:34.032Z,9.30
2022-11-26T11:27:25.407Z,9.30
2022-11-26T11:30:29.007Z,9.40
2022-11-26T11:33:26.523Z,9.40
2022-11-26T11:36:17.596Z,9.50
2022-11-26T11:39:04.089Z,9.60
2022-11-26T11:41:49.626Z,9.60
2022-11-26T11:44:42.833Z,9.70
2022-11-26T11:47:37.620Z,9.70
2022-11-26T11:50:41.884Z,9.70
2022-11-26T11:54:12.692Z,9.80
2022-11-26T11:57:21.518Z,9.70
2022-11-26T12:00:10.740Z,9.80
2022-11-26T12:03:11.111Z,9.90
2022-11-26T12:06:09.396Z,9.90
2022-11-26T12:09:05.798Z,9.90
2022-11-26T12:12:07.518Z,9.80
2022-11-26T12:15:04.189Z,9.80
2022-11-26T12:17:56.283Z,9.70
2022-11-26T12:20:56.035Z,9.70
2022-11-26T12:24:03.322Z,9.70
2022-11-26T12:26:57.915Z,9.70
2022-11-26T12:29:50.529Z,9.60
2022-11-26T12:32:49.118Z,9.70
2022-11-26T12:35:53.065Z,9.70
2022-11-26T12:38:53.294Z,9.80
2022-11-26T12:41:56.593Z,9.90
2022-11-26T12:44:44.345Z,9.90
2022-11-26T12:47:42.315Z,9.90
2022-11-26T12:50:39.472Z,9.80
2022-11-26T12:53:30.383Z,9.90
2022-11-26T12:56:41.625Z,9.90
2022-11-26T12:59:44.396Z,10.00
2022-11-26T13:02:31.045Z,10.10
2022-11-26T13:05:32.950Z,10.10
2022-11-26T13:08:26.781Z,10.10
2022-11-26T13:11:39.060Z,10.40
2022-11-26T13:14:42.218Z,10.50
2022-11-26T13:17:41.489Z,10.30
2022-11-26T13:20:51.861Z,10.30
2022-11-26T13:24:04.937Z,10.20
2022-11-26T13:27:05.900Z,10.20
2022-11-26T13:29:55.350Z,10.10
2022-11-26T13:33:02.581Z,10.10
2022-11-26T13:36:18.910Z,10.10
2022-11-26T13:39:20.883Z,10.20
2022-11-26T13:42:39.332Z,10.00
2022-11-26T13:46:00.729Z,10.00
2022-11-26T13:49:19.162Z,10.30
2022-11-26T13:52:16.375Z,10.50
2022-11-26T13:55:15.623Z,10.40
2022-11-26T13:58:03.867Z,10.20
2022-11-26T14:00:49.561Z,10.10
2022-11-26T14:03:47.766Z,10.10
2022-11-26T14:06:33.426Z,10.00
2022-11-26T14:09:46.969Z,9.90
2022-11-26T14:13:03.056Z,9.90
2022-11-26T14:15:54.176Z,9.80
2022-11-26T14:18:48.390Z,9.80
2022-11-26T14:21:57.886Z,9.80
2022-11-26T14:24:49.513Z,9.80
2022-11-26T14:27:39.856Z,9.80
2022-11-26T14:30:28.203Z,9.80
2022-11-26T14:33:23.970Z,9.80
2022-11-26T14:36:24.460Z,9.70
2022-11-26T14:39:09.602Z,9.70
2022-11-26T14:42:05.204Z,9.70
2022-11-26T14:45:19.908Z,9.70
2022-11-26T14:48:05.862Z,9.70
2022-11-26T14:50:52.353Z,9.70
2022-11-26T14:53:45.743Z,9.70
2022-11-26T14:56:31.417Z,9.70
2022-11-26T14:59:18.422Z,9.70
2022-11-26T15:02:03.928Z,9.70
2022-11-26T15:05:01.912Z,9.70
2022-11-26T15:08:07.210Z,9.70
2022-11-26T15:10:57.313Z,9.70
2022-11-26T15:13:45.748Z,9.70
2022-11-26T15:16:38.217Z,9.60
2022-11-26T15:19:24.142Z,9.60
2022-11-26T15:22:33.744Z,9.60
2022-11-26T15:25:22.186Z,9.60
2022-11-26T15:28:21.441Z,9.60
2022-11-26T15:31:10.226Z,9.60
2022-11-26T15:33:55.336Z,9.50
2022-11-26T15:36:40.843Z,9.50
2022-11-26T15:39:31.454Z,9.50
2022-11-26T15:42:32.217Z,9.40
2022-11-26T15:45:20.875Z,9.40
2022-11-26T15:48:27.040Z,9.40
2022-11-26T15:51:35.873Z,9.40
2022-11-26T15:54:26.412Z,9.40
2022-11-26T15:57:33.179Z,9.40
2022-11-26T16:00:23.410Z,9.40
2022-11-26T16:03:35.741Z,9.30
2022-11-26T16:06:39.610Z,9.40
2022-11-26T16:09:30.966Z,9.40
2022-11-26T16:12:27.990Z,9.30
2022-11-26T16:15:21.301Z,9.20
2022-11-26T16:18:16.462Z,9.30
2022-11-26T16:21:05.555Z,9.30
2022-11-26T16:24:01.681Z,9.30
2022-11-26T16:26:54.172Z,9.20
2022-11-26T16:29:39.522Z,9.20
2022-11-26T16:32:25.014Z,9.20
2022-11-26T16:35:37.594Z,9.20
2022-11-26T16:38:21.189Z,9.20
2022-11-26T16:41:10.988Z,9.10
2022-11-26T16:43:58.457Z,9.30
2022-11-26T16:46:51.901Z,9.80
2022-11-26T16:49:36.993Z,9.90
2022-11-26T16:52:22.454Z,9.80
2022-11-26T16:55:13.604Z,9.80
2022-11-26T16:58:01.199Z,9.60
2022-11-26T17:00:46.470Z,9.60
2022-11-26T17:03:34.737Z,9.50
2022-11-26T17:06:29.969Z,9.50
2022-11-26T17:09:19.579Z,9.40
2022-11-26T17:12:04.944Z,9.40
2022-11-26T17:17:42.361Z,9.30
2022-11-26T17:20:27.371Z,9.30
2022-11-26T17:23:13.288Z,9.30
2022-11-26T17:26:00.715Z,9.20
2022-11-26T17:28:46.431Z,9.20
2022-11-26T17:31:32.024Z,9.20
2022-11-26T17:34:17.413Z,9.30
2022-11-26T17:37:02.848Z,9.30
2022-11-26T17:39:49.029Z,9.30
2022-11-26T17:42:36.835Z,9.30
2022-11-26T17:45:23.153Z,9.30
2022-11-26T17:48:13.042Z,9.30
2022-11-26T17:50:58.101Z,9.30
2022-11-26T17:53:43.968Z,9.30
2022-11-26T17:56:29.189Z,9.20
2022-11-26T17:59:18.197Z,9.20
2022-11-26T18:02:05.855Z,9.20
2022-11-26T18:04:51.401Z,9.20
2022-11-26T18:07:37.783Z,9.20
2022-11-26T18:10:23.791Z,9.20
2022-11-26T18:13:09.217Z,9.20
2022-11-26T18:15:59.601Z,9.20
2022-11-26T18:18:44.807Z,9.20
2022-11-26T18:21:30.705Z,9.20
2022-11-26T18:24:16.491Z,9.20
2022-11-26T18:27:02.431Z,9.10
2022-11-26T18:29:47.893Z,9.10
2022-11-26T18:32:33.252Z,9.10
2022-11-26T18:35:18.794Z,9.10
2022-11-26T18:38:07.587Z,9.10
2022-11-26T18:41:02.102Z,9.00
2022-11-26T18:43:47.706Z,9.00
2022-11-26T18:46:33.535Z,9.00
2022-11-26T18:49:18.690Z,9.00
2022-11-26T18:52:04.072Z,9.00
2022-11-26T18:54:49.464Z,8.90
2022-11-26T18:57:34.951Z,8.90
2022-11-26T19:00:20.806Z,8.90
2022-11-26T19:03:05.794Z,8.90
2022-11-26T19:05:53.281Z,8.90
2022-11-26T19:08:39.564Z,8.90
2022-11-26T19:11:25.297Z,8.80
2022-11-26T19:14:14.621Z,8.80
2022-11-26T19:17:00.456Z,8.80
2022-11-26T19:19:45.694Z,8.80
2022-11-26T19:22:31.120Z,8.80
2022-11-26T19:25:16.630Z,8.80
2022-11-26T19:28:04.976Z,8.80
2022-11-26T19:31:01.701Z,8.80
2022-11-26T19:33:51.506Z,8.70
2022-11-26T19:36:37.600Z,8.70
2022-11-26T19:39:23.338Z,8.70
2022-11-26T19:42:08.802Z,8.60
2022-11-26T19:44:53.894Z,8.60
2022-11-26T19:47:39.450Z,8.60
2022-11-26T19:50:25.026Z,8.60
2022-11-26T19:53:10.499Z,8.50
2022-11-26T19:56:11.590Z,8.50
2022-11-26T19:58:58.577Z,8.50
2022-11-26T20:01:43.744Z,8.50
2022-11-26T20:04:29.922Z,8.50
2022-11-26T20:07:15.409Z,8.40
2022-11-26T20:10:00.658Z,8.40
2022-11-26T20:12:46.080Z,8.30
2022-11-26T20:15:32.440Z,8.30
2022-11-26T20:18:17.560Z,8.30
2022-11-26T20:21:06.176Z,8.20
2022-11-26T20:23:52.884Z,8.20
2022-11-26T20:26:40.990Z,8.10
2022-11-26T20:29:26.037Z,8.10
2022-11-26T20:32:12.956Z,8.20
2022-11-26T20:34:58.442Z,8.20
2022-11-26T20:37:43.841Z,8.10
2022-11-26T20:40:29.260Z,8.20
2022-11-26T20:43:14.662Z,8.10
2022-11-26T20:46:02.326Z,8.00
2022-11-26T20:48:47.666Z,8.00
2022-11-26T20:51:33.459Z,7.90
2022-11-26T20:54:19.072Z,7.90
2022-11-26T20:57:05.936Z,7.90
2022-11-26T20:59:51.333Z,7.90
2022-11-26T21:02:37.441Z,7.90
2022-11-26T21:05:23.179Z,7.80
2022-11-26T21:08:08.646Z,7.80
2022-11-26T21:10:54.023Z,7.70
2022-11-26T21:13:40.345Z,7.70
2022-11-26T21:16:26.000Z,7.70
2022-11-26T21:19:12.484Z,7.60
2022-11-26T21:21:58.116Z,7.60
2022-11-26T21:24:43.648Z,7.50
2022-11-26T21:27:29.354Z,7.50
2022-11-26T21:30:14.522Z,7.50
2022-11-26T21:33:03.224Z,7.40
2022-11-26T21:35:50.950Z,7.30
2022-11-26T21:38:36.816Z,7.30
2022-11-26T21:41:22.548Z,7.30
2022-11-26T21:44:08.225Z,7.30
2022-11-26T21:46:53.389Z,7.30
2022-11-26T21:49:38.961Z,7.30
2022-11-26T21:52:24.140Z,7.30
2022-11-26T21:55:09.778Z,7.30
2022-11-26T21:57:55.241Z,7.30
2022-11-26T22:00:40.542Z,7.30
2022-11-26T22:03:25.908Z,7.30
2022-11-26T22:06:11.793Z,7.30
2022-11-26T22:08:56.964Z,7.30
2022-11-26T22:11:44.865Z,7.20
2022-11-26T22:14:30.282Z,7.20
2022-11-26T22:17:15.733Z,7.20
2022-11-26T22:20:01.259Z,7.20
2022-11-26T22:22:46.577Z,7.20
2022-11-26T22:25:35.164Z,7.20
2022-11-26T22:28:20.387Z,7.20
2022-11-26T22:31:15.816Z,7.20
2022-11-26T22:34:12.591Z,7.10
2022-11-26T22:36:57.804Z,7.10
2022-11-26T22:39:43.017Z,7.10
2022-11-26T22:42:28.436Z,7.10
2022-11-26T22:45:13.916Z,7.00
2022-11-26T22:47:59.417Z,7.00
2022-11-26T22:50:55.056Z,7.00
2022-11-26T22:53:40.481Z,7.00
2022-11-26T22:56:25.813Z,6.90
2022-11-26T22:59:13.263Z,6.90
2022-11-26T23:01:58.830Z,6.80
2022-11-26T23:04:44.163Z,6.80
2022-11-26T23:07:29.600Z,6.80
2022-11-26T23:10:15.025Z,6.80
2022-11-26T23:13:00.411Z,6.70
2022-11-26T23:15:46.989Z,6.70
2022-11-26T23:18:32.234Z,6.60
2022-11-26T23:21:24.347Z,6.60
2022-11-26T23:24:10.920Z,6.60
2022-11-26T23:26:56.505Z,6.60
2022-11-26T23:29:42.151Z,6.60
2022-11-26T23:32:32.251Z,6.50
2022-11-26T23:35:17.680Z,6.50
2022-11-26T23:38:03.108Z,6.50
2022-11-26T23:40:59.538Z,6.40
2022-11-26T23:43:45.189Z,6.30
2022-11-26T23:46:32.310Z,6.30
2022-11-26T23:49:17.524Z,6.30
2022-11-26T23:52:02.858Z,6.40
2022-11-26T23:54:48.460Z,6.40
2022-11-26T23:57:33.810Z,6.40
